createdAt,value
2019-05-21T00:02:25.004Z,39.00
2019-05-21T00:04:55.319Z,40.25
2019-05-21T00:07:25.950Z,37.20
2019-05-21T00:09:56.376Z,40.30
2019-05-21T00:12:26.662Z,37.48
2019-05-21T00:14:56.914Z,38.05
2019-05-21T00:17:27.122Z,38.38
2019-05-21T00:19:57.380Z,36.65
2019-05-21T00:22:27.648Z,39.05
2019-05-21T00:24:57.910Z,37.15
2019-05-21T00:27:28.185Z,38.28
2019-05-21T00:30:34.968Z,36.58
2019-05-21T00:33:41.431Z,37.45
2019-05-21T00:37:07.740Z,37.35
2019-05-21T00:40:17.415Z,37.78
2019-05-21T00:42:47.667Z,36.30
2019-05-21T00:45:17.964Z,37.83
2019-05-21T00:47:48.753Z,36.15
2019-05-21T00:50:19.017Z,36.00
2019-05-21T00:52:49.337Z,35.83
2019-05-21T00:55:19.599Z,35.85
2019-05-21T00:57:49.883Z,34.80
2019-05-21T01:00:20.195Z,32.45
2019-05-21T01:02:50.420Z,36.48
2019-05-21T01:05:20.673Z,34.15
2019-05-21T01:07:50.965Z,34.08
2019-05-21T01:10:21.259Z,29.90
2019-05-21T01:12:49.896Z,33.78
2019-05-21T01:15:18.481Z,32.93
2019-05-21T01:17:49.284Z,32.42
2019-05-21T01:20:19.496Z,32.48
2019-05-21T01:22:49.724Z,30.17
2019-05-21T01:25:19.976Z,31.80
2019-05-21T01:27:50.660Z,30.15
2019-05-21T01:30:20.989Z,30.20
2019-05-21T01:32:51.254Z,31.70
2019-05-21T01:35:21.532Z,31.50
2019-05-21T01:37:51.962Z,30.88
2019-05-21T01:40:22.225Z,30.05
2019-05-21T01:42:52.513Z,28.98
2019-05-21T01:45:22.653Z,28.20
2019-05-21T01:47:52.985Z,28.02
2019-05-21T01:50:23.267Z,30.27
2019-05-21T01:52:53.491Z,29.07
2019-05-21T01:55:24.387Z,29.30
2019-05-21T01:57:54.575Z,30.77
2019-05-21T02:00:24.800Z,26.77
2019-05-21T02:02:55.127Z,28.55
2019-05-21T02:05:33.184Z,26.68
2019-05-21T02:07:57.434Z,25.80
2019-05-21T02:10:27.730Z,26.17
2019-05-21T02:12:58.238Z,26.20
2019-05-21T02:15:28.475Z,26.10
2019-05-21T02:17:58.727Z,26.82
2019-05-21T02:20:29.020Z,25.32
2019-05-21T02:22:59.407Z,24.75
2019-05-21T02:25:29.635Z,25.55
2019-05-21T02:27:59.993Z,26.23
2019-05-21T02:30:30.317Z,24.63
2019-05-21T02:33:00.633Z,26.02
2019-05-21T02:35:30.961Z,25.77
2019-05-21T02:38:02.193Z,25.70
2019-05-21T02:40:32.345Z,23.35
2019-05-21T02:43:06.836Z,23.95
2019-05-21T02:45:37.156Z,23.75
2019-05-21T02:48:09.294Z,23.47
2019-05-21T02:50:40.153Z,22.80
2019-05-21T02:53:10.476Z,23.85
2019-05-21T02:55:40.669Z,24.10
2019-05-21T02:58:10.854Z,23.65
2019-05-21T03:01:02.783Z,23.18
2019-05-21T03:03:34.000Z,22.55
2019-05-21T03:06:13.830Z,23.15
2019-05-21T03:08:37.217Z,22.62
2019-05-21T03:11:07.477Z,23.27
2019-05-21T03:13:37.835Z,22.40
2019-05-21T03:16:08.412Z,22.40
2019-05-21T03:18:38.637Z,20.37
2019-05-21T03:21:09.017Z,20.80
2019-05-21T03:23:39.310Z,20.75
2019-05-21T03:26:09.556Z,21.25
2019-05-21T03:28:39.817Z,21.57
2019-05-21T03:31:09.994Z,20.92
2019-05-21T03:33:40.330Z,19.25
2019-05-21T03:36:10.515Z,19.80
2019-05-21T03:38:40.833Z,20.00
2019-05-21T03:41:12.106Z,21.05
2019-05-21T03:43:42.406Z,19.62
2019-05-21T03:46:12.652Z,19.20
2019-05-21T03:48:42.903Z,21.35
2019-05-21T03:51:13.191Z,18.05
2019-05-21T03:53:43.444Z,20.52
2019-05-21T03:56:13.705Z,20.12
2019-05-21T03:58:44.020Z,19.52
2019-05-21T04:01:14.378Z,18.65
2019-05-21T04:03:44.623Z,19.15
2019-05-21T04:06:14.858Z,18.57
2019-05-21T04:08:46.164Z,17.00
2019-05-21T04:11:16.388Z,18.55
2019-05-21T04:13:46.587Z,19.70
2019-05-21T04:16:28.928Z,17.37
2019-05-21T04:19:05.723Z,18.45
2019-05-21T04:21:37.079Z,16.80
2019-05-21T04:24:08.954Z,17.05
2019-05-21T04:26:39.316Z,16.32
2019-05-21T04:29:09.745Z,17.10
2019-05-21T04:31:40.039Z,16.55
2019-05-21T04:34:10.740Z,15.13
2019-05-21T04:36:41.084Z,16.93
2019-05-21T04:39:11.289Z,15.32
2019-05-21T04:41:41.528Z,15.03
2019-05-21T04:44:11.698Z,14.78
2019-05-21T04:46:41.963Z,15.50
2019-05-21T04:49:12.693Z,15.58
2019-05-21T04:51:42.863Z,15.23
2019-05-21T04:54:13.110Z,14.07
2019-05-21T04:56:43.361Z,15.05
2019-05-21T04:59:13.617Z,14.60
2019-05-21T05:01:43.943Z,14.85
2019-05-21T05:04:14.227Z,15.08
2019-05-21T05:06:44.560Z,14.50
2019-05-21T05:09:14.713Z,14.73
2019-05-21T05:11:45.027Z,14.07
2019-05-21T05:14:15.311Z,13.32
2019-05-21T05:16:45.572Z,13.18
2019-05-21T05:19:15.901Z,12.85
2019-05-21T05:21:46.130Z,12.13
2019-05-21T05:24:16.495Z,11.88
2019-05-21T05:26:46.764Z,11.15
2019-05-21T05:29:17.051Z,13.68
2019-05-21T05:31:47.295Z,12.78
2019-05-21T05:34:18.552Z,13.65
2019-05-21T05:36:48.878Z,14.05
2019-05-21T05:39:19.201Z,14.20
2019-05-21T05:41:49.482Z,14.95
2019-05-21T05:44:19.637Z,16.37
2019-05-21T05:46:49.932Z,17.77
2019-05-21T05:49:25.278Z,18.40
2019-05-21T05:51:55.581Z,18.90
2019-05-21T05:54:25.784Z,15.05
2019-05-21T05:56:56.132Z,14.98
2019-05-21T05:59:26.434Z,16.97
2019-05-21T06:01:56.951Z,17.25
2019-05-21T06:04:30.427Z,17.25
2019-05-21T06:06:59.081Z,15.85
2019-05-21T06:09:29.623Z,8.43
2019-05-21T06:11:59.839Z,10.48
2019-05-21T06:14:30.237Z,11.93
2019-05-21T06:17:01.462Z,13.30
2019-05-21T06:19:31.811Z,14.63
2019-05-21T06:22:02.215Z,15.20
2019-05-21T06:24:32.479Z,14.25
2019-05-21T06:27:02.696Z,14.87
2019-05-21T06:29:32.956Z,11.73
2019-05-21T06:32:03.130Z,10.98
2019-05-21T06:34:33.464Z,10.95
2019-05-21T06:37:03.838Z,9.15
2019-05-21T06:39:34.022Z,11.78
2019-05-21T06:42:04.525Z,12.10
2019-05-21T06:44:34.785Z,11.80
2019-05-21T06:47:04.947Z,10.50
2019-05-21T06:49:36.308Z,10.58
2019-05-21T06:52:06.641Z,14.38
2019-05-21T06:54:37.024Z,11.28
2019-05-21T06:57:07.295Z,16.15
2019-05-21T06:59:37.693Z,16.82
2019-05-21T07:02:07.955Z,14.78
2019-05-21T07:04:38.185Z,18.60
2019-05-21T07:07:08.484Z,23.15
2019-05-21T07:09:38.872Z,22.15
2019-05-21T07:12:09.148Z,20.65
2019-05-21T07:14:39.380Z,13.65
2019-05-21T07:17:09.877Z,10.65
2019-05-21T07:19:40.227Z,8.18
2019-05-21T07:22:13.076Z,5.87
2019-05-21T07:24:42.543Z,6.58
2019-05-21T07:27:12.735Z,3.52
2019-05-21T07:29:43.937Z,15.90
2019-05-21T07:32:14.230Z,22.98
2019-05-21T07:34:44.573Z,37.88
2019-05-21T07:37:14.882Z,42.73
2019-05-21T07:39:45.253Z,41.40
2019-05-21T07:42:15.526Z,42.35
2019-05-21T07:44:45.812Z,40.58
2019-05-21T07:47:17.600Z,41.10
2019-05-21T07:49:47.955Z,42.27
2019-05-21T07:52:18.453Z,45.73
2019-05-21T07:54:48.721Z,50.63
2019-05-21T07:57:18.978Z,58.55
2019-05-21T07:59:49.303Z,51.60
2019-05-21T08:02:19.538Z,52.25
2019-05-21T08:04:49.798Z,51.77
2019-05-21T08:07:20.181Z,50.83
2019-05-21T08:09:50.518Z,27.67
2019-05-21T08:12:37.283Z,24.00
2019-05-21T08:14:52.734Z,19.17
2019-05-21T08:17:22.967Z,14.53
2019-05-21T08:19:53.300Z,17.15
2019-05-21T08:22:23.547Z,13.30
2019-05-21T08:24:53.915Z,10.23
2019-05-21T08:27:24.162Z,9.15
2019-05-21T08:29:54.323Z,14.00
2019-05-21T08:32:24.671Z,14.00
2019-05-21T08:34:54.957Z,9.20
2019-05-21T08:37:25.143Z,17.20
2019-05-21T08:39:55.800Z,19.65
2019-05-21T08:42:26.054Z,14.65
2019-05-21T08:44:56.306Z,7.37
2019-05-21T08:47:26.572Z,6.12
2019-05-21T08:49:56.930Z,8.88
2019-05-21T08:52:27.265Z,8.03
2019-05-21T08:54:57.632Z,3.83
2019-05-21T08:57:27.902Z,3.77
2019-05-21T08:59:58.269Z,2.95
2019-05-21T09:02:28.503Z,3.27
2019-05-21T09:04:58.858Z,4.00
2019-05-21T09:07:29.249Z,4.35
2019-05-21T09:09:59.625Z,4.67
2019-05-21T09:12:29.969Z,2.37
2019-05-21T09:15:00.189Z,4.78
2019-05-21T09:17:30.539Z,2.95
2019-05-21T09:20:00.809Z,5.40
2019-05-21T09:22:31.351Z,2.10
2019-05-21T09:25:01.767Z,4.45
2019-05-21T09:27:32.192Z,6.42
2019-05-21T09:30:02.544Z,4.70
2019-05-21T09:32:32.844Z,5.97
2019-05-21T09:35:03.288Z,12.30
2019-05-21T09:37:33.541Z,5.75
2019-05-21T09:40:04.448Z,7.12
2019-05-21T09:42:34.827Z,4.17
2019-05-21T09:45:05.440Z,4.95
2019-05-21T09:47:35.952Z,6.95
2019-05-21T09:50:06.825Z,4.70
2019-05-21T09:52:38.120Z,12.05
2019-05-21T09:55:08.708Z,10.63
2019-05-21T09:57:55.275Z,8.23
2019-05-21T10:00:46.924Z,6.05
2019-05-21T10:03:18.905Z,9.75
2019-05-21T10:05:49.201Z,7.80
2019-05-21T10:08:19.577Z,8.65
2019-05-21T10:10:49.858Z,5.85
2019-05-21T10:13:20.173Z,8.78
2019-05-21T10:15:50.553Z,5.05
2019-05-21T10:18:20.771Z,4.95
2019-05-21T10:20:50.997Z,4.42
2019-05-21T10:23:21.841Z,6.20
2019-05-21T10:25:52.117Z,3.98
2019-05-21T10:28:24.117Z,3.27
2019-05-21T10:30:54.425Z,8.05
2019-05-21T10:33:26.480Z,5.35
2019-05-21T10:35:56.706Z,5.37
2019-05-21T10:38:27.007Z,3.80
2019-05-21T10:40:57.218Z,3.08
2019-05-21T10:43:27.883Z,3.52
2019-05-21T10:45:58.210Z,6.12
2019-05-21T10:48:28.601Z,4.65
2019-05-21T10:50:59.000Z,5.03
2019-05-21T10:53:29.253Z,7.85
2019-05-21T10:55:59.510Z,5.12
2019-05-21T10:58:29.854Z,9.23
2019-05-21T11:01:10.205Z,7.62
2019-05-21T11:03:58.442Z,8.55
2019-05-21T11:06:28.746Z,9.25
2019-05-21T11:08:59.022Z,9.93
2019-05-21T11:11:29.302Z,4.47
2019-05-21T11:13:59.652Z,4.53
2019-05-21T11:16:30.051Z,2.95
2019-05-21T11:19:00.316Z,2.83
2019-05-21T11:21:30.669Z,5.67
2019-05-21T11:24:01.083Z,3.10
2019-05-21T11:26:31.720Z,5.70
2019-05-21T11:29:02.208Z,6.12
2019-05-21T11:31:33.451Z,4.97
2019-05-21T11:34:03.876Z,4.58
2019-05-21T11:36:35.056Z,5.90
2019-05-21T11:39:07.397Z,4.15
2019-05-21T11:41:40.509Z,5.80
2019-05-21T11:44:10.915Z,4.08
2019-05-21T11:46:41.521Z,2.33
2019-05-21T11:49:12.418Z,15.88
2019-05-21T11:51:42.840Z,35.40
2019-05-21T11:54:13.345Z,14.35
2019-05-21T11:56:43.744Z,9.30
2019-05-21T11:59:14.232Z,15.55
2019-05-21T12:01:45.246Z,15.32
2019-05-21T12:04:15.887Z,8.48
2019-05-21T12:06:46.173Z,8.93
2019-05-21T12:09:17.197Z,5.85
2019-05-21T12:11:47.611Z,9.40
2019-05-21T12:14:18.740Z,10.32
2019-05-21T12:16:49.354Z,5.37
2019-05-21T12:19:20.133Z,3.60
2019-05-21T12:21:50.954Z,7.55
2019-05-21T12:24:21.589Z,3.40
2019-05-21T12:26:52.070Z,8.40
2019-05-21T12:29:22.469Z,7.25
2019-05-21T12:31:52.719Z,6.53
2019-05-21T12:34:21.817Z,6.03
2019-05-21T12:36:50.395Z,6.45
2019-05-21T12:39:19.380Z,6.28
2019-05-21T12:41:47.937Z,5.95
2019-05-21T12:44:20.933Z,7.12
2019-05-21T12:46:51.471Z,5.80
2019-05-21T12:49:21.732Z,6.33
2019-05-21T12:51:52.317Z,7.25
2019-05-21T12:54:22.617Z,4.50
2019-05-21T12:56:54.270Z,7.70
2019-05-21T12:59:24.977Z,5.60
2019-05-21T13:01:55.791Z,4.08
2019-05-21T13:04:26.152Z,6.15
2019-05-21T13:06:56.419Z,4.05
2019-05-21T13:09:32.694Z,4.70
2019-05-21T13:11:58.949Z,7.30
2019-05-21T13:14:29.234Z,6.42
2019-05-21T13:16:59.396Z,6.10
2019-05-21T13:19:30.526Z,4.03
2019-05-21T13:22:01.367Z,6.12
2019-05-21T13:24:31.681Z,3.33
2019-05-21T13:27:02.013Z,8.33
2019-05-21T13:29:33.756Z,3.98
2019-05-21T13:32:04.062Z,5.80
2019-05-21T13:34:34.312Z,2.08
2019-05-21T13:37:04.527Z,1.87
2019-05-21T13:39:48.782Z,3.80
2019-05-21T13:42:08.231Z,1.52
2019-05-21T13:44:38.569Z,1.50
2019-05-21T13:47:08.781Z,2.75
2019-05-21T13:49:39.420Z,2.20
2019-05-21T13:52:10.163Z,2.83
2019-05-21T13:54:42.137Z,3.65
2019-05-21T13:57:12.627Z,4.53
2019-05-21T13:59:43.496Z,1.98
2019-05-21T14:02:14.410Z,4.37
2019-05-21T14:04:45.238Z,1.10
2019-05-21T14:07:17.080Z,1.37
2019-05-21T14:09:47.668Z,1.37
2019-05-21T14:12:18.841Z,1.75
2019-05-21T14:14:50.214Z,11.65
2019-05-21T14:17:21.119Z,11.60
2019-05-21T14:19:51.834Z,9.93
2019-05-21T14:22:22.581Z,7.30
2019-05-21T14:24:52.811Z,5.30
2019-05-21T14:27:24.248Z,6.37
2019-05-21T14:29:56.223Z,6.03
2019-05-21T14:32:35.303Z,3.67
2019-05-21T14:35:06.699Z,2.15
2019-05-21T14:37:37.056Z,3.65
2019-05-21T14:40:08.433Z,5.83
2019-05-21T14:42:38.920Z,4.42
2019-05-21T14:45:10.405Z,5.92
2019-05-21T14:47:41.524Z,5.10
2019-05-21T14:50:11.863Z,6.33
2019-05-21T14:52:42.473Z,8.00
2019-05-21T14:55:13.456Z,5.62
2019-05-21T14:57:44.246Z,4.70
2019-05-21T15:00:23.618Z,3.70
2019-05-21T15:02:54.101Z,5.53
2019-05-21T15:05:24.982Z,5.83
2019-05-21T15:07:55.295Z,5.55
2019-05-21T15:10:25.673Z,4.12
2019-05-21T15:12:56.015Z,2.10
2019-05-21T15:15:32.493Z,5.75
2019-05-21T15:18:02.779Z,1.67
2019-05-21T15:20:52.218Z,2.62
2019-05-21T15:23:24.506Z,3.30
2019-05-21T15:25:56.436Z,13.60
2019-05-21T15:28:27.677Z,25.50
2019-05-21T15:30:58.695Z,24.57
2019-05-21T15:33:30.298Z,27.60
2019-05-21T15:36:00.656Z,22.93
2019-05-21T15:38:48.459Z,26.70
2019-05-21T15:41:10.479Z,18.60
2019-05-21T15:43:36.112Z,16.25
2019-05-21T15:46:27.329Z,15.70
2019-05-21T15:48:57.654Z,14.05
2019-05-21T15:51:27.815Z,13.98
2019-05-21T15:53:58.067Z,13.15
2019-05-21T15:56:28.800Z,13.90
2019-05-21T15:58:59.054Z,11.43
2019-05-21T16:01:30.517Z,11.83
2019-05-21T16:04:00.748Z,11.93
2019-05-21T16:06:31.026Z,12.03
2019-05-21T16:09:01.242Z,12.18
2019-05-21T16:11:32.798Z,14.18
2019-05-21T16:14:03.324Z,11.38
2019-05-21T16:16:33.667Z,9.95
2019-05-21T16:19:03.988Z,10.70
2019-05-21T16:21:34.278Z,9.28
2019-05-21T16:24:04.559Z,10.05
2019-05-21T16:26:35.302Z,10.72
2019-05-21T16:29:07.030Z,10.78
2019-05-21T16:31:37.681Z,12.47
2019-05-21T16:34:08.138Z,10.38
2019-05-21T16:36:38.466Z,9.10
2019-05-21T16:39:09.199Z,9.55
2019-05-21T16:41:44.857Z,9.25
2019-05-21T16:44:11.720Z,10.13
2019-05-21T16:46:42.788Z,9.03
2019-05-21T16:49:13.995Z,8.58
2019-05-21T16:51:44.798Z,9.68
2019-05-21T16:54:15.751Z,9.03
2019-05-21T16:56:46.350Z,9.55
2019-05-21T16:59:17.169Z,7.45
2019-05-21T17:01:47.413Z,9.00
2019-05-21T17:04:17.787Z,9.83
2019-05-21T17:06:48.218Z,9.95
2019-05-21T17:09:19.096Z,8.05
2019-05-21T17:11:59.381Z,7.58
2019-05-21T17:14:23.054Z,9.00
2019-05-21T17:16:53.813Z,8.63
2019-05-21T17:19:24.149Z,8.55
2019-05-21T17:21:54.362Z,10.45
2019-05-21T17:24:25.710Z,9.10
2019-05-21T17:26:56.202Z,9.88
2019-05-21T17:29:26.482Z,8.83
2019-05-21T17:31:56.955Z,7.83
2019-05-21T17:34:27.208Z,8.15
2019-05-21T17:36:57.576Z,8.05
2019-05-21T17:39:27.924Z,8.18
2019-05-21T17:41:58.285Z,7.35
2019-05-21T17:44:29.465Z,7.87
2019-05-21T17:46:59.754Z,8.20
2019-05-21T17:49:29.972Z,7.25
2019-05-21T17:52:01.272Z,8.08
2019-05-21T17:54:31.556Z,8.05
2019-05-21T17:57:01.784Z,9.35
2019-05-21T17:59:32.188Z,7.25
2019-05-21T18:02:04.130Z,9.10
2019-05-21T18:04:34.662Z,8.18
2019-05-21T18:07:05.910Z,7.83
2019-05-21T18:09:37.174Z,7.80
2019-05-21T18:12:08.693Z,7.83
2019-05-21T18:14:39.515Z,9.25
2019-05-21T18:17:13.637Z,8.08
2019-05-21T18:19:44.327Z,7.70
2019-05-21T18:22:18.334Z,9.20
2019-05-21T18:24:49.756Z,7.80
2019-05-21T18:27:20.285Z,7.80
2019-05-21T18:29:50.628Z,9.45
2019-05-21T18:32:20.781Z,9.10
2019-05-21T18:34:52.016Z,7.60
2019-05-21T18:37:22.722Z,8.03
2019-05-21T18:39:53.082Z,7.28
2019-05-21T18:42:23.408Z,7.67
2019-05-21T18:44:53.804Z,9.70
2019-05-21T18:47:24.182Z,7.83
2019-05-21T18:49:54.439Z,6.42
2019-05-21T18:52:24.891Z,7.95
2019-05-21T18:54:56.187Z,6.42
2019-05-21T18:57:26.473Z,7.05
2019-05-21T18:59:56.758Z,8.25
2019-05-21T19:02:27.151Z,6.58
2019-05-21T19:04:57.749Z,7.92
2019-05-21T19:07:28.129Z,6.62
2019-05-21T19:10:00.907Z,6.75
2019-05-21T19:12:37.970Z,7.80
2019-05-21T19:15:03.258Z,8.38
2019-05-21T19:17:35.879Z,8.10
2019-05-21T19:20:09.755Z,6.87
2019-05-21T19:22:40.151Z,7.97
2019-05-21T19:25:10.699Z,6.30
2019-05-21T19:27:41.214Z,8.45
2019-05-21T19:30:11.737Z,7.20
2019-05-21T19:32:42.298Z,6.90
2019-05-21T19:35:12.976Z,7.62
2019-05-21T19:37:43.554Z,5.87
2019-05-21T19:40:13.839Z,5.58
2019-05-21T19:42:54.254Z,5.90
2019-05-21T19:45:18.876Z,6.92
2019-05-21T19:47:49.259Z,5.87
2019-05-21T19:50:19.471Z,5.75
2019-05-21T19:52:50.063Z,7.62
2019-05-21T19:55:20.369Z,9.45
2019-05-21T19:57:51.686Z,11.00
2019-05-21T20:00:21.987Z,11.65
2019-05-21T20:03:01.044Z,9.38
2019-05-21T20:05:31.436Z,10.85
2019-05-21T20:08:01.857Z,9.65
2019-05-21T20:10:34.267Z,10.00
2019-05-21T20:13:04.988Z,8.18
2019-05-21T20:15:35.623Z,10.93
2019-05-21T20:18:07.709Z,8.18
2019-05-21T20:20:41.873Z,11.55
2019-05-21T20:23:13.877Z,8.95
2019-05-21T20:25:56.000Z,13.88
2019-05-21T20:28:17.339Z,12.90
2019-05-21T20:30:48.857Z,12.15
2019-05-21T20:33:19.160Z,17.87
2019-05-21T20:35:49.700Z,18.20
2019-05-21T20:38:20.276Z,21.30
2019-05-21T20:40:50.668Z,19.27
2019-05-21T20:43:21.248Z,17.37
2019-05-21T20:45:51.838Z,21.07
2019-05-21T20:48:26.299Z,24.10
2019-05-21T20:50:56.696Z,27.98
2019-05-21T20:53:27.301Z,22.62
2019-05-21T20:55:57.892Z,21.35
2019-05-21T20:58:28.440Z,20.68
2019-05-21T21:01:07.690Z,22.35
2019-05-21T21:03:39.774Z,21.55
2019-05-21T21:06:10.899Z,21.52
2019-05-21T21:08:41.211Z,21.77
2019-05-21T21:11:13.378Z,22.65
2019-05-21T21:13:44.580Z,19.85
2019-05-21T21:16:15.061Z,20.40
2019-05-21T21:18:46.115Z,23.30
2019-05-21T21:21:16.761Z,20.68
2019-05-21T21:23:49.108Z,22.87
2019-05-21T21:26:19.502Z,29.40
2019-05-21T21:28:49.777Z,27.07
2019-05-21T21:31:20.242Z,25.72
2019-05-21T21:33:50.587Z,34.38
2019-05-21T21:36:21.232Z,40.65
2019-05-21T21:38:51.396Z,61.80
2019-05-21T21:41:21.813Z,77.30
2019-05-21T21:43:52.483Z,107.05
2019-05-21T21:46:22.818Z,105.83
2019-05-21T21:48:53.134Z,110.17
2019-05-21T21:51:36.979Z,95.67
2019-05-21T21:54:36.090Z,98.00
2019-05-21T21:57:21.701Z,88.70
2019-05-21T21:59:58.712Z,82.88
2019-05-21T22:02:39.315Z,78.83
2019-05-21T22:05:18.142Z,76.65
2019-05-21T22:07:58.623Z,75.10
2019-05-21T22:10:30.531Z,76.20
2019-05-21T22:13:26.994Z,72.22
2019-05-21T22:16:00.155Z,76.00
2019-05-21T22:18:30.565Z,72.40
2019-05-21T22:21:01.344Z,73.20
2019-05-21T22:23:31.740Z,73.92
2019-05-21T22:26:02.853Z,75.37
2019-05-21T22:28:33.206Z,75.22
2019-05-21T22:31:03.710Z,73.12
2019-05-21T22:33:34.233Z,71.50
2019-05-21T22:36:04.823Z,72.50
2019-05-21T22:38:35.180Z,72.17
2019-05-21T22:41:05.553Z,68.62
2019-05-21T22:43:35.867Z,70.65
2019-05-21T22:46:06.075Z,72.20
2019-05-21T22:48:37.476Z,71.87
2019-05-21T22:51:08.909Z,73.15
2019-05-21T22:53:39.843Z,71.28
2019-05-21T22:56:10.125Z,71.62
2019-05-21T22:58:41.492Z,70.12
2019-05-21T23:01:12.446Z,71.77
2019-05-21T23:03:42.806Z,73.12
2019-05-21T23:06:13.163Z,69.40
2019-05-21T23:08:45.064Z,67.97
2019-05-21T23:11:16.425Z,67.27
2019-05-21T23:13:46.691Z,67.12
2019-05-21T23:16:17.635Z,69.45
2019-05-21T23:18:56.625Z,69.60
2019-05-21T23:21:40.457Z,69.42
2019-05-21T23:24:17.071Z,67.37
2019-05-21T23:26:47.674Z,67.05
2019-05-21T23:29:19.026Z,71.22
2019-05-21T23:31:49.290Z,68.07
2019-05-21T23:34:19.511Z,68.80
2019-05-21T23:36:51.643Z,67.67
2019-05-21T23:39:25.589Z,61.80
2019-05-21T23:41:56.114Z,68.50
2019-05-21T23:44:26.880Z,66.57
2019-05-21T23:46:57.412Z,65.50
2019-05-21T23:49:27.620Z,66.55
2019-05-21T23:51:57.882Z,68.60
2019-05-21T23:54:28.307Z,69.82
2019-05-21T23:56:59.425Z,65.85
2019-05-21T23:59:29.773Z,67.37
